Time;durP1;ratioP1;P1;durP2;ratioP2;P2;SDS_P1;SDS_P2;PMS_P1;PMS_P2;Temp;Humidity;BMP_temperature;BMP_pressure;BME280_temperature;BME280_humidity;BME280_pressure;Samples;Min_cycle;Max_cycle;Signal;HPM_P1;HPM_P2
2021/05/04 00:01:41;;;;;;;1.08;1.08;;;17.80;48.70;;;;;;5095702;28;20173;-63
2021/05/04 00:04:07;;;;;;;1.35;1.25;;;17.80;48.70;;;;;;5095546;28;20266;-62
2021/05/04 00:06:33;;;;;;;1.30;1.20;;;17.80;48.70;;;;;;5095792;28;20170;-66
2021/05/04 00:08:58;;;;;;;1.30;1.20;;;17.80;48.60;;;;;;5095943;28;20598;-64
2021/05/04 00:11:24;;;;;;;1.13;1.13;;;17.80;48.70;;;;;;5077158;28;20166;-63
2021/05/04 00:13:49;;;;;;;1.30;1.20;;;17.80;48.70;;;;;;5077634;28;20193;-65
2021/05/04 00:16:15;;;;;;;1.13;1.10;;;17.80;48.70;;;;;;5095751;28;20649;-65
2021/05/04 00:18:41;;;;;;;1.40;1.30;;;17.80;48.60;;;;;;5094781;28;20170;-65
2021/05/04 00:21:06;;;;;;;1.10;1.00;;;17.80;48.60;;;;;;5095724;28;20162;-65
2021/05/04 00:23:32;;;;;;;1.63;1.45;;;17.80;48.70;;;;;;5095332;28;20204;-63
2021/05/04 00:25:58;;;;;;;1.48;1.20;;;17.80;48.60;;;;;;5060143;28;20695;-64
2021/05/04 00:28:23;;;;;;;1.85;1.10;;;17.80;48.70;;;;;;5077365;28;20174;-64
2021/05/04 00:30:49;;;;;;;1.60;1.50;;;17.70;48.60;;;;;;5095176;28;20288;-65
2021/05/04 00:33:14;;;;;;;1.40;1.30;;;17.70;48.50;;;;;;5094672;28;20282;-62
2021/05/04 00:35:40;;;;;;;1.30;1.20;;;17.70;48.60;;;;;;5095165;28;20605;-62
2021/05/04 00:38:06;;;;;;;1.38;1.27;;;17.80;48.60;;;;;;5095585;28;20170;-65
2021/05/04 00:40:31;;;;;;;1.48;1.38;;;17.70;48.50;;;;;;5094602;28;20166;-63
2021/05/04 00:42:57;;;;;;;1.10;1.10;;;17.70;48.50;;;;;;5095354;28;20177;-64
2021/05/04 00:45:23;;;;;;;1.75;1.10;;;17.70;48.50;;;;;;5077103;28;20644;-66
2021/05/04 00:47:48;;;;;;;1.00;1.00;;;17.70;48.50;;;;;;5094231;28;20174;-66
2021/05/04 00:50:14;;;;;;;1.08;1.02;;;17.70;48.50;;;;;;5095060;28;20177;-63
2021/05/04 00:52:40;;;;;;;1.15;1.05;;;17.70;48.50;;;;;;5094766;28;20216;-63
2021/05/04 00:55:06;;;;;;;1.38;1.27;;;17.70;48.50;;;;;;5059796;28;20166;-64
2021/05/04 00:57:32;;;;;;;3.00;1.42;;;17.70;48.50;;;;;;5094787;28;20165;-63
2021/05/04 00:59:59;;;;;;;1.45;1.35;;;17.70;48.60;;;;;;5095037;28;20258;-66
2021/05/04 01:02:25;;;;;;;1.20;1.10;;;17.70;48.60;;;;;;5059772;28;20230;-66
2021/05/04 01:04:50;;;;;;;1.20;1.10;;;17.70;48.60;;;;;;5094530;28;20174;-65
2021/05/04 01:07:16;;;;;;;1.50;1.40;;;17.60;48.50;;;;;;5076101;28;20183;-63
2021/05/04 01:09:42;;;;;;;4.20;1.63;;;17.60;48.60;;;;;;5093677;28;20171;-63
2021/05/04 01:12:07;;;;;;;1.98;1.50;;;17.60;48.60;;;;;;5076534;28;20695;-64
2021/05/04 01:14:33;;;;;;;1.40;1.30;;;17.60;48.70;;;;;;5093872;28;20174;-64
2021/05/04 01:16:58;;;;;;;1.40;1.10;;;17.60;48.70;;;;;;5094752;28;20178;-65
2021/05/04 01:19:24;;;;;;;1.60;1.50;;;17.60;48.70;;;;;;5094647;28;20166;-66
2021/05/04 01:21:50;;;;;;;1.48;1.30;;;17.60;48.70;;;;;;5093556;28;20649;-64
2021/05/04 01:24:16;;;;;;;1.70;1.55;;;17.60;48.70;;;;;;5059875;28;20173;-64
2021/05/04 01:26:42;;;;;;;2.50;1.20;;;17.60;48.80;;;;;;5094269;28;20605;-64
2021/05/04 01:29:08;;;;;;;1.20;1.10;;;17.60;48.80;;;;;;5094077;28;20572;-64
2021/05/04 01:31:33;;;;;;;1.08;1.08;;;17.60;48.80;;;;;;5059152;28;20174;-65
2021/05/04 01:33:59;;;;;;;1.58;1.30;;;17.60;48.80;;;;;;5059321;28;20597;-66
2021/05/04 01:36:25;;;;;;;1.90;1.10;;;17.60;48.90;;;;;;5075695;28;20170;-62
2021/05/04 01:38:50;;;;;;;2.03;1.27;;;17.50;48.90;;;;;;5093779;28;20174;-62
2021/05/04 01:41:16;;;;;;;1.30;1.20;;;17.50;48.90;;;;;;5094335;28;20170;-65
2021/05/04 01:43:41;;;;;;;1.00;1.00;;;17.50;48.90;;;;;;5075135;28;20174;-63
2021/05/04 01:46:07;;;;;;;1.73;1.30;;;17.50;48.90;;;;;;5094167;28;20197;-64
2021/05/04 01:48:32;;;;;;;1.85;1.30;;;17.50;49.00;;;;;;5093712;28;20190;-67
2021/05/04 01:50:58;;;;;;;1.33;1.23;;;17.50;49.00;;;;;;5093334;28;20177;-66
2021/05/04 01:53:24;;;;;;;1.25;1.15;;;17.50;49.00;;;;;;5093766;28;20737;-63
2021/05/04 01:55:49;;;;;;;2.97;1.20;;;17.50;49.00;;;;;;5093458;28;20165;-63
2021/05/04 01:58:16;;;;;;;2.33;1.00;;;17.50;49.00;;;;;;5093420;28;20174;-64
2021/05/04 02:00:42;;;;;;;1.02;0.90;;;17.50;49.10;;;;;;5075760;28;20257;-66
2021/05/04 02:03:08;;;;;;;1.30;1.20;;;17.50;49.20;;;;;;5091461;28;20363;-63
2021/05/04 02:05:33;;;;;;;2.65;1.17;;;17.50;49.20;;;;;;5093514;28;20174;-62
2021/05/04 02:07:59;;;;;;;2.05;1.17;;;17.50;49.20;;;;;;5093732;28;20170;-62
2021/05/04 02:10:24;;;;;;;1.92;1.40;;;17.50;49.20;;;;;;5092712;28;20621;-64
2021/05/04 02:12:50;;;;;;;1.10;1.00;;;17.50;49.20;;;;;;5094503;28;20210;-63
2021/05/04 02:15:16;;;;;;;1.75;1.50;;;17.50;49.20;;;;;;5094198;28;20173;-64
2021/05/04 02:17:42;;;;;;;1.23;1.17;;;17.50;49.20;;;;;;5093498;28;20170;-64
2021/05/04 02:20:08;;;;;;;2.50;1.40;;;17.50;49.30;;;;;;5093977;28;20169;-65
2021/05/04 02:22:34;;;;;;;1.40;1.20;;;17.50;49.30;;;;;;5074909;28;20641;-66
2021/05/04 02:25:00;;;;;;;2.08;1.17;;;17.50;49.30;;;;;;5057918;28;20174;-65
2021/05/04 02:27:26;;;;;;;2.50;1.20;;;17.40;49.20;;;;;;5058556;28;20245;-65
2021/05/04 02:29:51;;;;;;;1.35;1.02;;;17.40;49.30;;;;;;5092844;28;20586;-63
2021/05/04 02:32:17;;;;;;;1.27;1.17;;;17.40;49.30;;;;;;5093033;28;20213;-64
2021/05/04 02:34:42;;;;;;;1.50;1.40;;;17.40;49.30;;;;;;5092987;28;20223;-62
2021/05/04 02:37:08;;;;;;;2.30;1.40;;;17.40;49.40;;;;;;5092913;28;20166;-65
2021/05/04 02:39:33;;;;;;;1.23;1.13;;;17.40;49.40;;;;;;5092928;28;20180;-63
2021/05/04 02:41:59;;;;;;;1.52;1.42;;;17.40;49.40;;;;;;5093300;28;20592;-65
2021/05/04 02:44:25;;;;;;;1.52;1.13;;;17.40;49.40;;;;;;5092244;28;20173;-67
2021/05/04 02:46:50;;;;;;;1.40;1.30;;;17.40;49.40;;;;;;5093262;28;20177;-64
2021/05/04 02:49:16;;;;;;;2.50;1.27;;;17.30;49.40;;;;;;5093725;28;20662;-66
2021/05/04 02:51:43;;;;;;;3.05;1.10;;;17.40;49.40;;;;;;5074300;28;20189;-63
2021/05/04 02:54:09;;;;;;;2.95;1.20;;;17.40;49.50;;;;;;5092807;28;20201;-64
2021/05/04 02:56:34;;;;;;;1.13;1.02;;;17.40;49.60;;;;;;5057821;28;20177;-64
2021/05/04 02:59:00;;;;;;;1.85;1.02;;;17.30;49.50;;;;;;5092412;28;20211;-64
2021/05/04 03:01:25;;;;;;;2.10;1.27;;;17.30;50.10;;;;;;5092672;28;20165;-63
2021/05/04 03:03:51;;;;;;;2.45;1.25;;;17.30;49.50;;;;;;5074971;28;20522;-65
2021/05/04 03:06:17;;;;;;;1.65;1.17;;;17.30;49.50;;;;;;5057430;28;20170;-63
2021/05/04 03:08:42;;;;;;;1.40;1.30;;;17.30;49.60;;;;;;5093001;28;20173;-64
2021/05/04 03:11:08;;;;;;;1.10;1.10;;;17.30;49.60;;;;;;5092887;28;20180;-64
2021/05/04 03:13:34;;;;;;;1.30;1.20;;;17.30;49.60;;;;;;5091948;28;20217;-64
2021/05/04 03:15:59;;;;;;;1.50;1.35;;;17.30;49.60;;;;;;5074834;28;20629;-66
2021/05/04 03:18:25;;;;;;;1.33;1.23;;;17.30;49.60;;;;;;5074741;28;20178;-65
2021/05/04 03:20:52;;;;;;;1.67;1.30;;;17.30;49.70;;;;;;5092004;28;20181;-64
2021/05/04 03:23:19;;;;;;;1.60;1.08;;;17.30;49.70;;;;;;5092644;28;20206;-64
2021/05/04 03:25:45;;;;;;;1.40;1.30;;;17.30;49.70;;;;;;5074811;28;20162;-65
2021/05/04 03:28:10;;;;;;;1.02;1.02;;;17.30;49.70;;;;;;5092077;28;20174;-64
2021/05/04 03:30:36;;;;;;;1.23;1.13;;;17.30;49.70;;;;;;5092395;28;20180;-64
2021/05/04 03:33:02;;;;;;;1.15;1.15;;;17.30;49.70;;;;;;5070569;28;20222;-62
2021/05/04 03:35:27;;;;;;;1.10;1.10;;;17.30;49.70;;;;;;5075992;28;20567;-62
2021/05/04 03:37:53;;;;;;;2.50;1.35;;;17.30;49.70;;;;;;5076424;28;20296;-65
2021/05/04 03:40:18;;;;;;;1.05;1.00;;;17.20;49.70;;;;;;5075453;28;20661;-65
2021/05/04 03:42:44;;;;;;;1.35;1.20;;;17.20;49.70;;;;;;5074997;28;20578;-66
2021/05/04 03:45:13;;;;;;;1.05;1.00;;;17.20;49.70;;;;;;5076099;28;20200;-66
2021/05/04 03:47:43;;;;;;;1.52;1.30;;;17.20;49.80;;;;;;5074090;28;20177;-64
2021/05/04 03:50:10;;;;;;;1.27;1.08;;;17.20;49.80;;;;;;5076070;28;20173;-65
2021/05/04 03:52:36;;;;;;;1.05;1.00;;;17.20;49.80;;;;;;5075786;28;20732;-65
2021/05/04 03:55:03;;;;;;;1.80;1.45;;;17.20;49.80;;;;;;5075385;28;20178;-65
2021/05/04 03:57:28;;;;;;;1.20;1.20;;;17.20;49.80;;;;;;5074484;28;20182;-66
2021/05/04 03:59:54;;;;;;;1.25;1.20;;;17.20;49.80;;;;;;5075986;28;20170;-66
2021/05/04 04:02:19;;;;;;;1.00;1.00;;;17.20;49.80;;;;;;5075037;28;20202;-66
2021/05/04 04:04:45;;;;;;;2.15;1.35;;;17.20;49.80;;;;;;5075804;28;20171;-62
2021/05/04 04:07:11;;;;;;;1.40;1.27;;;17.20;49.80;;;;;;5075804;28;20174;-63
2021/05/04 04:09:36;;;;;;;1.20;1.10;;;17.20;49.80;;;;;;5074844;28;20179;-65
2021/05/04 04:12:02;;;;;;;2.53;1.30;;;17.20;49.80;;;;;;5074375;28;20194;-64
2021/05/04 04:14:28;;;;;;;2.58;1.10;;;17.20;49.90;;;;;;5073971;28;20179;-65
2021/05/04 04:16:53;;;;;;;1.40;1.30;;;17.20;49.90;;;;;;5075100;28;20177;-66
2021/05/04 04:19:19;;;;;;;2.47;1.10;;;17.20;49.90;;;;;;5075303;28;20562;-65
2021/05/04 04:21:45;;;;;;;1.88;1.23;;;17.10;49.90;;;;;;5075684;28;20167;-64
2021/05/04 04:24:11;;;;;;;1.00;1.00;;;17.10;49.90;;;;;;5074890;28;20223;-64
2021/05/04 04:26:36;;;;;;;1.20;1.10;;;17.10;49.90;;;;;;5075066;28;20182;-65
2021/05/04 04:29:02;;;;;;;1.52;1.30;;;17.10;50.00;;;;;;5075342;28;20169;-64
2021/05/04 04:31:28;;;;;;;1.50;1.38;;;17.10;49.90;;;;;;5073338;28;20174;-63
2021/05/04 04:33:53;;;;;;;1.58;1.20;;;17.10;50.00;;;;;;5087773;28;20257;-65
2021/05/04 04:36:19;;;;;;;1.20;1.10;;;17.10;50.00;;;;;;5094637;28;20201;-62
2021/05/04 04:38:44;;;;;;;1.45;1.10;;;17.10;50.00;;;;;;5077439;28;20170;-63
2021/05/04 04:41:10;;;;;;;1.10;1.00;;;17.10;50.00;;;;;;5077303;28;20190;-65
2021/05/04 04:43:36;;;;;;;1.10;1.10;;;17.10;50.00;;;;;;5059755;28;20208;-66
2021/05/04 04:46:01;;;;;;;1.40;1.30;;;17.10;50.10;;;;;;5094955;28;20177;-65
2021/05/04 04:48:27;;;;;;;1.83;1.27;;;17.10;50.10;;;;;;5077147;28;20253;-63
2021/05/04 04:50:53;;;;;;;1.23;1.15;;;17.10;50.10;;;;;;5094780;28;20161;-63
2021/05/04 04:53:18;;;;;;;1.92;1.23;;;17.10;50.10;;;;;;5094833;28;20216;-65
2021/05/04 04:55:44;;;;;;;1.30;1.20;;;17.10;50.10;;;;;;5077042;28;20661;-66
2021/05/04 04:58:09;;;;;;;1.30;1.20;;;17.10;50.10;;;;;;5094335;28;20178;-64
2021/05/04 05:00:35;;;;;;;1.00;0.90;;;17.10;50.10;;;;;;5094637;28;20177;-63
2021/05/04 05:03:01;;;;;;;1.00;0.90;;;17.10;50.10;;;;;;5095408;28;20213;-62
2021/05/04 05:05:26;;;;;;;1.23;1.13;;;17.10;50.10;;;;;;5093909;28;20173;-65
2021/05/04 05:07:52;;;;;;;1.15;1.08;;;17.10;50.20;;;;;;5095089;28;20185;-65
2021/05/04 05:10:17;;;;;;;1.33;1.00;;;17.20;50.30;;;;;;5076606;28;20162;-63
2021/05/04 05:12:43;;;;;;;0.85;0.85;;;17.30;50.70;;;;;;5094081;28;20271;-65
2021/05/04 05:15:09;;;;;;;1.27;1.08;;;17.40;50.20;;;;;;5094642;28;20166;-65
2021/05/04 05:17:35;;;;;;;0.90;0.90;;;17.60;50.00;;;;;;5094315;28;20178;-64
2021/05/04 05:20:00;;;;;;;1.02;0.98;;;17.70;49.70;;;;;;5094074;28;20170;-64
2021/05/04 05:22:27;;;;;;;1.70;0.90;;;17.90;49.50;;;;;;5094320;28;20170;-63
2021/05/04 05:24:54;;;;;;;1.20;1.10;;;18.00;49.40;;;;;;5059868;28;20182;-64
2021/05/04 05:27:19;;;;;;;0.80;0.80;;;18.10;49.20;;;;;;5075628;28;20185;-65
2021/05/04 05:29:45;;;;;;;2.42;1.00;;;18.20;49.10;;;;;;5076248;28;20170;-64
2021/05/04 05:32:10;;;;;;;0.88;0.80;;;18.30;49.00;;;;;;5059549;28;20214;-64
2021/05/04 05:34:36;;;;;;;0.68;0.68;;;18.40;48.80;;;;;;5075209;28;20320;-64
2021/05/04 05:37:01;;;;;;;1.33;0.90;;;18.50;48.60;;;;;;5094874;28;20520;-63
2021/05/04 05:39:27;;;;;;;1.00;1.00;;;18.60;48.30;;;;;;5075819;28;20252;-62
2021/05/04 05:41:53;;;;;;;0.95;0.93;;;18.60;48.20;;;;;;5075324;28;20174;-64
2021/05/04 05:44:18;;;;;;;1.10;1.00;;;18.60;48.30;;;;;;5093695;28;20170;-65
2021/05/04 05:46:44;;;;;;;1.65;0.85;;;18.60;48.30;;;;;;5093770;28;20706;-64
2021/05/04 05:49:10;;;;;;;0.98;0.90;;;18.60;48.20;;;;;;5094257;28;20189;-64
2021/05/04 05:51:37;;;;;;;0.70;0.70;;;18.60;48.30;;;;;;5093706;28;20166;-62
2021/05/04 05:54:03;;;;;;;1.17;0.88;;;18.60;48.20;;;;;;5093383;28;20220;-63
2021/05/04 05:56:28;;;;;;;0.80;0.77;;;18.60;48.20;;;;;;5058386;28;20169;-64
2021/05/04 05:58:54;;;;;;;0.65;0.65;;;18.60;48.30;;;;;;5075679;28;20182;-63
2021/05/04 06:01:19;;;;;;;0.63;0.60;;;18.50;48.40;;;;;;5092835;28;20170;-65
2021/05/04 06:03:45;;;;;;;0.60;0.60;;;18.50;48.60;;;;;;5075864;28;20649;-63
2021/05/04 06:06:10;;;;;;;0.95;0.75;;;18.40;48.70;;;;;;5075528;28;20170;-68
2021/05/04 06:08:36;;;;;;;1.75;1.10;;;18.40;49.00;;;;;;5074694;28;20176;-66
2021/05/04 06:11:02;;;;;;;0.80;0.80;;;18.30;49.30;;;;;;5075565;28;20174;-70
2021/05/04 06:13:27;;;;;;;4.57;1.02;;;18.20;49.20;;;;;;5092524;28;20201;-67
2021/05/04 06:15:53;;;;;;;1.10;0.90;;;18.20;49.50;;;;;;5074239;28;20166;-71
2021/05/04 06:18:18;;;;;;;1.50;0.80;;;18.10;49.60;;;;;;5093171;28;20212;-70
2021/05/04 06:20:44;;;;;;;1.60;1.13;;;18.10;49.70;;;;;;5093434;28;20194;-70
2021/05/04 06:23:10;;;;;;;2.30;1.35;;;18.00;50.10;;;;;;5074668;28;20624;-70
2021/05/04 06:25:35;;;;;;;2.05;1.27;;;18.00;50.20;;;;;;5093006;28;20185;-69
2021/05/04 06:28:05;;;;;;;2.03;0.90;;;18.00;50.40;;;;;;5093381;28;20174;-75
2021/05/04 06:30:35;;;;;;;4.38;1.30;;;17.90;50.50;;;;;;5058247;28;20655;-68
2021/05/04 06:33:14;;;;;;;1.45;1.25;;;17.90;50.80;;;;;;5039390;28;20248;-76
2021/05/04 06:35:42;;;;;;;2.30;0.90;;;17.80;51.30;;;;;;5038503;28;20175;-74
2021/05/04 06:38:08;;;;;;;1.65;1.33;;;17.80;51.80;;;;;;5054876;28;20170;-76
2021/05/04 06:40:34;;;;;;;6.00;1.40;;;17.80;51.40;;;;;;5071668;28;20248;-74
2021/05/04 06:43:01;;;;;;;2.67;1.30;;;17.90;51.50;;;;;;5070973;28;20206;-71
2021/05/04 06:45:27;;;;;;;4.38;1.25;;;17.90;51.80;;;;;;5071392;28;20166;-74
2021/05/04 06:47:52;;;;;;;2.70;1.30;;;18.00;51.60;;;;;;5073114;28;20299;-75
2021/05/04 06:50:18;;;;;;;2.45;1.20;;;18.00;52.20;;;;;;5054220;28;20630;-74
2021/05/04 06:52:43;;;;;;;3.15;1.10;;;17.90;51.50;;;;;;5054967;28;20241;-72
2021/05/04 06:55:09;;;;;;;4.15;1.33;;;17.90;51.60;;;;;;5071302;28;20559;-72
2021/05/04 06:57:35;;;;;;;2.45;1.30;;;17.90;51.70;;;;;;5070829;28;20271;-71
2021/05/04 07:00:01;;;;;;;2.53;1.25;;;17.90;51.60;;;;;;5071580;28;20645;-73
2021/05/04 07:02:27;;;;;;;1.80;1.05;;;17.90;51.60;;;;;;5072292;28;20691;-72
2021/05/04 07:04:53;;;;;;;2.50;1.20;;;17.90;51.50;;;;;;5071841;28;20257;-71
2021/05/04 07:07:18;;;;;;;2.45;1.13;;;17.90;52.20;;;;;;5071222;28;20257;-73
2021/05/04 07:09:45;;;;;;;1.95;1.15;;;17.90;51.70;;;;;;5074652;28;20178;-72
2021/05/04 07:12:10;;;;;;;2.58;0.93;;;17.80;51.70;;;;;;5076188;28;20201;-73
2021/05/04 07:14:38;;;;;;;3.35;1.40;;;17.80;51.70;;;;;;5058543;28;20185;-73
2021/05/04 07:17:03;;;;;;;3.63;0.95;;;17.80;52.10;;;;;;5075779;28;20166;-74
2021/05/04 07:19:29;;;;;;;3.40;1.30;;;17.80;51.70;;;;;;5074340;28;20174;-73
2021/05/04 07:21:55;;;;;;;2.47;1.27;;;17.80;51.70;;;;;;5075528;28;20630;-72
2021/05/04 07:24:21;;;;;;;3.47;1.45;;;17.80;51.80;;;;;;5075046;28;20167;-69
2021/05/04 07:26:46;;;;;;;1.35;1.17;;;17.70;51.90;;;;;;5076064;28;20204;-71
2021/05/04 07:29:12;;;;;;;6.25;1.23;;;17.70;51.80;;;;;;5076750;28;20287;-70
2021/05/04 07:31:37;;;;;;;2.97;1.40;;;17.80;52.20;;;;;;5075989;28;20693;-72
2021/05/04 07:34:03;;;;;;;3.65;1.20;;;17.80;52.20;;;;;;5074337;28;20293;-70
2021/05/04 07:36:30;;;;;;;4.78;1.40;;;17.80;52.10;;;;;;5075044;28;20225;-70
2021/05/04 07:38:56;;;;;;;2.08;0.90;;;17.80;52.10;;;;;;5076236;28;20173;-69
2021/05/04 07:41:22;;;;;;;1.38;0.90;;;17.80;52.00;;;;;;5075413;28;20178;-67
2021/05/04 07:43:48;;;;;;;3.15;1.42;;;17.80;52.10;;;;;;5076119;28;20528;-66
2021/05/04 07:46:13;;;;;;;1.27;1.17;;;17.80;52.00;;;;;;5075656;28;20179;-66
2021/05/04 07:48:39;;;;;;;3.72;1.10;;;17.80;52.00;;;;;;5074612;28;20178;-66
2021/05/04 07:51:05;;;;;;;3.10;1.30;;;17.80;52.10;;;;;;5076209;28;20174;-77
2021/05/04 07:53:34;;;;;;;4.03;1.40;;;17.80;52.00;;;;;;5075115;28;20206;-64
2021/05/04 07:56:00;;;;;;;1.73;1.00;;;17.80;52.10;;;;;;5075771;28;20576;-70
2021/05/04 07:58:26;;;;;;;4.18;1.38;;;17.90;52.10;;;;;;5072320;28;20301;-65
2021/05/04 08:00:52;;;;;;;3.97;1.35;;;17.80;52.00;;;;;;5073832;28;20198;-63
2021/05/04 08:03:18;;;;;;;4.78;1.67;;;17.80;52.00;;;;;;5074221;28;20175;-65
2021/05/04 08:05:44;;;;;;;3.58;1.25;;;17.80;52.00;;;;;;5074392;28;20167;-64
2021/05/04 08:08:12;;;;;;;1.77;1.13;;;17.70;52.10;;;;;;5075093;28;20171;-69
2021/05/04 08:10:38;;;;;;;1.95;0.80;;;17.70;52.20;;;;;;5058037;28;20606;-71
2021/05/04 08:13:04;;;;;;;3.90;1.30;;;17.60;52.30;;;;;;5075659;28;20285;-65
2021/05/04 08:15:29;;;;;;;1.92;1.35;;;17.60;52.30;;;;;;5053172;28;20183;-63
2021/05/04 08:17:57;;;;;;;2.78;1.10;;;17.60;52.30;;;;;;5054638;28;20171;-72
2021/05/04 08:20:27;;;;;;;1.30;1.15;;;17.60;52.30;;;;;;5054543;28;20163;-70
2021/05/04 08:22:52;;;;;;;5.10;1.23;;;17.50;52.30;;;;;;5053699;28;20171;-68
2021/05/04 08:25:19;;;;;;;3.92;1.00;;;17.50;52.30;;;;;;5055122;28;20225;-69
2021/05/04 08:27:45;;;;;;;2.42;1.10;;;17.60;52.30;;;;;;5054243;28;20599;-71
2021/05/04 08:30:11;;;;;;;4.32;1.33;;;17.60;52.20;;;;;;5054663;28;20195;-64
2021/05/04 08:32:36;;;;;;;3.40;1.20;;;17.60;52.20;;;;;;5068660;28;20238;-66
2021/05/04 08:35:02;;;;;;;1.85;1.00;;;17.60;52.20;;;;;;5095435;28;20197;-71
2021/05/04 08:37:28;;;;;;;2.53;1.23;;;17.60;52.20;;;;;;5094528;28;20178;-70
2021/05/04 08:39:54;;;;;;;4.82;1.50;;;17.70;52.70;;;;;;5095285;28;20162;-68
2021/05/04 08:42:19;;;;;;;0.95;0.88;;;17.70;52.30;;;;;;5095003;28;20178;-73
2021/05/04 08:44:49;;;;;;;1.77;1.30;;;17.70;52.30;;;;;;5076646;28;20550;-73
2021/05/04 08:47:16;;;;;;;2.25;1.10;;;17.70;52.30;;;;;;5060902;28;20268;-75
2021/05/04 08:49:41;;;;;;;4.25;1.10;;;17.70;52.30;;;;;;5059926;28;20198;-72
2021/05/04 08:52:07;;;;;;;2.30;1.27;;;17.70;52.40;;;;;;5077306;28;20233;-63
2021/05/04 08:54:33;;;;;;;2.25;1.10;;;17.70;52.40;;;;;;5059969;28;20180;-68
2021/05/04 08:56:58;;;;;;;4.13;1.02;;;17.70;52.40;;;;;;5094459;28;20170;-72
2021/05/04 08:59:24;;;;;;;3.05;1.40;;;17.70;52.50;;;;;;5083461;28;20174;-72
2021/05/04 09:01:49;;;;;;;4.38;1.08;;;17.60;52.50;;;;;;5094966;28;20648;-77
2021/05/04 09:04:48;;;;;;;3.10;1.65;;;17.60;52.50;;;;;;5076230;28;20518;-71
2021/05/04 09:07:25;;;;;;;5.38;1.45;;;17.70;52.80;;;;;;5080290;28;20166;-73
2021/05/04 09:10:20;;;;;;;2.53;1.55;;;17.70;52.90;;;;;;5061526;28;20177;-67
2021/05/04 09:13:08;;;;;;;3.10;1.55;;;17.70;52.70;;;;;;5078338;28;20258;-65
2021/05/04 09:21:10;;;;;;;2.65;1.17;;;17.80;52.50;;;;;;5094789;28;20173;-68
2021/05/04 09:23:37;;;;;;;3.05;1.42;;;18.00;52.30;;;;;;5042931;28;20633;-73
2021/05/04 09:26:03;;;;;;;2.72;1.40;;;18.10;52.10;;;;;;5075848;28;20170;-71
2021/05/04 09:28:28;;;;;;;3.90;1.67;;;18.10;52.10;;;;;;5076024;28;20170;-70
2021/05/04 09:30:58;;;;;;;2.88;1.13;;;18.10;52.10;;;;;;5058816;28;20166;-70
2021/05/04 09:33:24;;;;;;;6.78;1.83;;;18.10;52.20;;;;;;5075349;28;20689;-68
2021/05/04 09:35:50;;;;;;;4.38;1.27;;;18.10;52.30;;;;;;5059539;28;20168;-70
2021/05/04 09:38:19;;;;;;;3.85;1.20;;;18.20;52.40;;;;;;5059633;28;20207;-67
2021/05/04 09:40:46;;;;;;;2.60;1.13;;;18.10;52.10;;;;;;5075517;28;20622;-67
2021/05/04 09:43:16;;;;;;;5.18;1.52;;;18.20;52.30;;;;;;5059599;28;20660;-70
2021/05/04 09:45:43;;;;;;;5.30;1.55;;;18.20;52.10;;;;;;5059077;28;20170;-68
2021/05/04 09:48:20;;;;;;;3.75;1.20;;;18.30;51.80;;;;;;5059135;28;20518;-67
2021/05/04 09:51:03;;;;;;;3.80;1.15;;;18.30;51.90;;;;;;5094137;28;20168;-71
2021/05/04 09:53:50;;;;;;;3.75;1.17;;;18.20;52.00;;;;;;5043333;28;20236;-72
2021/05/04 09:56:29;;;;;;;3.05;1.20;;;18.10;52.20;;;;;;5077310;28;20195;-67
2021/05/04 09:58:55;;;;;;;2.67;1.33;;;18.00;52.40;;;;;;5043824;28;20264;-71
2021/05/04 10:01:20;;;;;;;3.65;1.10;;;18.00;52.50;;;;;;5092921;28;20751;-67
2021/05/04 10:03:47;;;;;;;3.45;1.25;;;18.00;52.60;;;;;;5075849;28;20567;-71
2021/05/04 10:06:15;;;;;;;3.60;1.30;;;18.00;52.70;;;;;;5093502;28;20613;-66
2021/05/04 10:08:40;;;;;;;4.28;2.13;;;17.90;52.60;;;;;;5074789;28;20174;-67
2021/05/04 10:11:10;;;;;;;2.78;1.35;;;18.00;52.60;;;;;;5042157;28;20197;-72
2021/05/04 10:13:37;;;;;;;2.55;1.33;;;18.00;52.40;;;;;;5059058;28;20201;-66
2021/05/04 10:16:03;;;;;;;3.97;1.33;;;18.00;52.40;;;;;;5058428;28;20170;-66
2021/05/04 10:18:29;;;;;;;3.97;1.38;;;18.00;52.40;;;;;;5075339;28;20177;-66
2021/05/04 10:20:57;;;;;;;1.98;1.20;;;18.00;52.40;;;;;;5075045;28;20258;-65
2021/05/04 10:23:26;;;;;;;3.25;1.23;;;18.00;52.40;;;;;;5058849;28;20170;-66
2021/05/04 10:26:03;;;;;;;3.75;0.88;;;18.00;52.30;;;;;;5075376;28;20206;-65
2021/05/04 10:28:33;;;;;;;3.20;1.65;;;18.10;52.10;;;;;;5057941;28;20222;-66
2021/05/04 10:31:00;;;;;;;2.25;1.20;;;18.10;52.20;;;;;;5075274;28;20625;-66
2021/05/04 10:33:27;;;;;;;4.38;1.35;;;18.10;52.20;;;;;;5074694;28;20229;-65
2021/05/04 10:35:54;;;;;;;3.15;1.75;;;18.10;52.30;;;;;;5074666;28;20165;-66
2021/05/04 10:38:19;;;;;;;4.03;1.40;;;18.10;52.10;;;;;;5075307;28;20646;-67
2021/05/04 10:41:06;;;;;;;4.00;1.10;;;18.20;51.90;;;;;;5075289;28;20185;-66
2021/05/04 10:43:33;;;;;;;3.13;1.30;;;18.30;51.90;;;;;;5091228;28;20209;-67
2021/05/04 10:45:59;;;;;;;4.10;1.10;;;18.30;51.80;;;;;;5075180;28;20218;-66
2021/05/04 10:48:40;;;;;;;2.05;1.10;;;18.30;51.80;;;;;;5058068;28;20209;-67
2021/05/04 10:51:09;;;;;;;2.08;1.25;;;18.40;51.60;;;;;;5092354;28;20172;-66
2021/05/04 10:53:55;;;;;;;1.98;1.08;;;18.30;51.50;;;;;;5092563;28;20205;-66
2021/05/04 10:56:45;;;;;;;1.50;1.00;;;18.20;51.80;;;;;;5092030;28;20195;-67
2021/05/04 10:59:17;;;;;;;4.18;1.20;;;18.10;52.00;;;;;;5080116;28;20186;-67
2021/05/04 11:02:08;;;;;;;2.33;1.20;;;18.10;52.00;;;;;;5075571;28;20189;-66
2021/05/04 11:04:55;;;;;;;3.42;1.40;;;18.10;52.00;;;;;;5091720;28;20245;-67
2021/05/04 11:07:53;;;;;;;1.63;1.00;;;18.10;52.10;;;;;;5074914;28;20173;-67
2021/05/04 11:10:19;;;;;;;1.30;0.98;;;18.00;52.00;;;;;;5073979;28;20170;-66
2021/05/04 11:12:44;;;;;;;1.48;0.90;;;17.90;52.10;;;;;;5075207;28;20711;-67
2021/05/04 11:15:20;;;;;;;1.58;0.95;;;18.00;52.00;;;;;;5092767;28;20712;-66
2021/05/04 11:17:45;;;;;;;2.25;1.00;;;18.10;51.70;;;;;;5074571;28;20268;-67
2021/05/04 11:20:34;;;;;;;2.90;1.30;;;18.20;51.70;;;;;;5092633;28;20257;-74
2021/05/04 11:23:00;;;;;;;4.70;1.20;;;18.10;51.60;;;;;;5076246;28;20641;-72
2021/05/04 11:25:40;;;;;;;2.78;1.27;;;18.10;51.80;;;;;;5073873;28;20253;-77
2021/05/04 11:28:06;;;;;;;2.72;1.23;;;17.90;51.90;;;;;;5059201;28;20229;-68
2021/05/04 11:30:33;;;;;;;4.30;1.33;;;17.90;52.10;;;;;;5074589;28;20310;-69
2021/05/04 11:32:59;;;;;;;3.13;1.20;;;18.00;52.10;;;;;;5057079;28;20232;-66
2021/05/04 11:35:37;;;;;;;6.90;1.40;;;18.20;51.70;;;;;;5057894;28;20162;-68
2021/05/04 11:38:03;;;;;;;3.85;1.40;;;18.30;51.50;;;;;;5075781;28;20292;-68
2021/05/04 11:40:29;;;;;;;4.30;1.30;;;18.30;51.40;;;;;;5040507;28;20264;-68
2021/05/04 11:43:00;;;;;;;3.65;1.33;;;18.30;51.40;;;;;;5092868;28;20255;-68
2021/05/04 11:45:30;;;;;;;4.20;1.30;;;18.30;51.50;;;;;;5057736;28;20176;-67
2021/05/04 11:48:02;;;;;;;2.75;1.05;;;18.30;51.70;;;;;;5058281;28;20173;-69
2021/05/04 11:50:39;;;;;;;5.28;1.20;;;18.20;51.80;;;;;;5092116;28;20170;-69
2021/05/04 11:53:16;;;;;;;2.95;1.70;;;18.10;51.90;;;;;;5073813;28;20576;-66
2021/05/04 11:55:46;;;;;;;9.48;1.35;;;18.10;52.10;;;;;;5095142;28;20543;-64
2021/05/04 11:58:17;;;;;;;5.70;1.30;;;18.10;52.20;;;;;;5078127;28;20178;-68
2021/05/04 12:00:42;;;;;;;6.28;1.42;;;18.10;52.10;;;;;;5077830;28;20170;-66
2021/05/04 12:03:08;;;;;;;6.28;1.55;;;18.10;52.10;;;;;;5061739;28;20170;-64
2021/05/04 12:05:34;;;;;;;3.95;1.27;;;18.10;52.10;;;;;;5060801;28;20223;-71
2021/05/04 12:08:00;;;;;;;6.47;1.70;;;18.10;52.00;;;;;;5077345;28;20174;-70
2021/05/04 12:10:28;;;;;;;6.35;1.25;;;18.10;52.00;;;;;;5077607;28;20170;-69
2021/05/04 12:12:55;;;;;;;4.63;1.27;;;18.30;51.80;;;;;;5044531;28;20209;-67
2021/05/04 12:15:26;;;;;;;6.03;1.98;;;18.40;51.40;;;;;;5060066;28;20633;-67
2021/05/04 12:17:56;;;;;;;3.45;1.10;;;18.50;51.30;;;;;;5095945;28;20166;-67
2021/05/04 12:20:22;;;;;;;5.35;1.40;;;18.50;51.30;;;;;;5077489;28;20566;-69
2021/05/04 12:22:48;;;;;;;5.43;1.30;;;18.40;51.50;;;;;;5065020;28;20716;-66
2021/05/04 12:25:15;;;;;;;2.78;1.05;;;18.30;51.70;;;;;;5102381;28;20227;-66
2021/05/04 12:27:45;;;;;;;3.15;1.15;;;18.20;52.40;;;;;;5059163;28;20194;-64
2021/05/04 12:30:19;;;;;;;3.47;1.30;;;18.20;51.80;;;;;;5077425;28;20670;-65
2021/05/04 12:32:44;;;;;;;3.05;1.27;;;18.20;51.80;;;;;;5081758;28;20228;-64
2021/05/04 12:35:14;;;;;;;2.42;0.80;;;18.20;51.80;;;;;;5085819;28;20170;-65
2021/05/04 12:37:39;;;;;;;3.97;1.30;;;18.20;51.90;;;;;;5104216;28;20176;-67
2021/05/04 12:40:15;;;;;;;3.65;1.73;;;18.20;51.90;;;;;;5087575;28;20177;-67
2021/05/04 12:42:41;;;;;;;3.40;1.35;;;18.20;51.90;;;;;;5099243;28;20176;-65
2021/05/04 12:45:09;;;;;;;2.03;1.15;;;18.20;51.90;;;;;;5094256;28;20173;-68
2021/05/04 12:47:34;;;;;;;2.72;1.13;;;18.20;51.80;;;;;;5075575;28;20252;-72
2021/05/04 12:50:00;;;;;;;2.20;0.90;;;18.10;51.80;;;;;;5076306;28;20277;-70
2021/05/04 12:52:25;;;;;;;4.47;1.20;;;18.10;52.60;;;;;;5060315;28;20206;-71
2021/05/04 12:54:52;;;;;;;5.70;1.65;;;18.10;51.90;;;;;;5076529;28;20181;-67